Weather reports worldwide

Advertisment
Elphin, United Kingdom (99153): temperature & dewpoint: 13.01.2019 09:00:00 - 19.01.2019 09:00:00 (GMT)Elphin, United Kingdom (99153): precipitation: 13.01.2019 09:00:00 - 19.01.2019 09:00:00 (GMT)
Date & Time tt [°C] td [°C] rr [mm]
19.01.2019 09:00:00 -4,2 -5,0 -
19.01.2019 08:00:00 - - -
19.01.2019 07:00:00 -1,0 -3,7 0,0
19.01.2019 06:00:00 -1,0 -4,2 0,0
19.01.2019 05:00:00 -0,8 -4,0 0,0
19.01.2019 04:00:00 -0,6 -3,9 0,0
19.01.2019 03:00:00 -1,6 -4,4 0,0
19.01.2019 02:00:00 -1,5 -4,4 0,0
19.01.2019 01:00:00 -1,3 -4,6 0,0
19.01.2019 00:00:00 -1,3 -4,8 0,0
18.01.2019 23:00:00 -0,8 -4,5 0,0
18.01.2019 22:00:00 -1,3 -4,7 0,0
18.01.2019 21:00:00 -0,7 -4,7 0,0
18.01.2019 20:00:00 -0,2 -4,3 0,0
18.01.2019 19:00:00 0,2 -3,3 0,0
18.01.2019 18:00:00 0,4 -3,0 0,0
18.01.2019 17:00:00 0,4 -2,5 0,0
18.01.2019 16:00:00 0,4 -2,6 0,0
18.01.2019 15:00:00 0,4 -2,6 0,0
18.01.2019 14:00:00 -0,1 -2,7 0,0
18.01.2019 13:00:00 -0,8 -3,8 0,0
18.01.2019 12:00:00 -1,4 -4,4 0,0
18.01.2019 11:00:00 -2,0 -4,6 0,0
18.01.2019 10:00:00 -1,9 -4,8 0,0
18.01.2019 09:00:00 -2,0 -4,5 0,0
18.01.2019 08:00:00 -2,0 -4,7 0,0
18.01.2019 07:00:00 -1,8 -4,5 0,0
18.01.2019 06:00:00 -2,3 -3,9 0,0
18.01.2019 05:00:00 -1,6 -4,1 0,0
18.01.2019 04:00:00 -1,6 -3,9 0,0
18.01.2019 03:00:00 -1,4 -3,6 0,0
18.01.2019 02:00:00 -1,5 -3,3 0,0
18.01.2019 01:00:00 -1,9 -3,0 0,0
18.01.2019 00:00:00 -1,5 -2,7 0,0
17.01.2019 23:00:00 -2,7 -3,2 0,0
17.01.2019 22:00:00 -2,6 -2,8 0,0
17.01.2019 21:00:00 -1,7 -2,2 0,0
17.01.2019 20:00:00 -2,0 -2,7 0,0
17.01.2019 19:00:00 -2,4 -2,9 0,0
17.01.2019 18:00:00 -1,9 -2,9 0,0
17.01.2019 17:00:00 -1,5 -2,2 0,0
17.01.2019 16:00:00 -0,5 -1,9 0,0
17.01.2019 15:00:00 -0,1 -1,8 0,4
17.01.2019 14:00:00 -0,5 -3,1 0,0
17.01.2019 13:00:00 - - -
17.01.2019 12:00:00 - - -
17.01.2019 11:00:00 -0,3 -1,6 0,0
17.01.2019 10:00:00 0,9 -1,1 0,0
17.01.2019 09:00:00 0,9 -1,8 0,0
17.01.2019 08:00:00 1,3 -0,2 0,0
17.01.2019 07:00:00 2,1 -2,1 0,0
17.01.2019 06:00:00 2,1 -4,2 0,0
17.01.2019 05:00:00 2,2 -1,7 0,0
17.01.2019 04:00:00 0,5 -1,5 0,0
17.01.2019 03:00:00 1,7 -2,8 0,0
17.01.2019 02:00:00 2,3 -2,6 0,0
17.01.2019 01:00:00 1,4 -3,6 0,0
17.01.2019 00:00:00 1,2 -3,7 0,0
16.01.2019 23:00:00 - - 0,0
16.01.2019 22:00:00 - - -
16.01.2019 21:00:00 - - 0,2
16.01.2019 20:00:00 - - 0,2
16.01.2019 19:00:00 - - 0,6
16.01.2019 18:00:00 - - 1,4
16.01.2019 17:00:00 - - 1,4
16.01.2019 16:00:00 - - 1,2
16.01.2019 15:00:00 - - 1,0
16.01.2019 14:00:00 - - 1,4
16.01.2019 13:00:00 - - 0,6
16.01.2019 12:00:00 - - -
16.01.2019 11:00:00 - - 0,0
16.01.2019 10:00:00 - - 0,2
16.01.2019 09:00:00 - - 0,4
16.01.2019 08:00:00 - - 2,2
16.01.2019 07:00:00 - - 1,0
16.01.2019 06:00:00 - - 1,0
16.01.2019 05:00:00 - - 1,0
16.01.2019 04:00:00 - - 0,2
16.01.2019 03:00:00 - - 0,2
16.01.2019 02:00:00 - - 0,0
16.01.2019 01:00:00 - - 0,0
16.01.2019 00:00:00 - - 0,0
15.01.2019 23:00:00 - - 0,4
15.01.2019 22:00:00 - - 1,2
15.01.2019 21:00:00 - - 0,8
15.01.2019 20:00:00 - - 0,0
15.01.2019 19:00:00 - - -
15.01.2019 18:00:00 - - 0,0
15.01.2019 17:00:00 - - -
15.01.2019 16:00:00 - - 0,2
15.01.2019 15:00:00 - - 0,0
15.01.2019 14:00:00 - - 0,0
15.01.2019 13:00:00 - - 0,2
15.01.2019 12:00:00 - - 0,4
15.01.2019 11:00:00 - - 0,6
15.01.2019 10:00:00 - - -
15.01.2019 09:00:00 - - 0,0
15.01.2019 08:00:00 - - -
15.01.2019 07:00:00 - - 0,0
15.01.2019 06:00:00 - - 0,0
15.01.2019 05:00:00 - - 0,0
15.01.2019 04:00:00 - - -
15.01.2019 03:00:00 - - 2,4
15.01.2019 02:00:00 - - 2,0
15.01.2019 01:00:00 - - 3,2
15.01.2019 00:00:00 - - 3,4
14.01.2019 23:00:00 - - 3,8
14.01.2019 22:00:00 - - 2,2
14.01.2019 21:00:00 - - 0,4
14.01.2019 20:00:00 - - 0,0
14.01.2019 19:00:00 6,9 5,7 0,2
14.01.2019 18:00:00 6,1 5,0 0,0
14.01.2019 17:00:00 5,6 4,5 0,0
14.01.2019 16:00:00 5,9 3,3 0,0
14.01.2019 15:00:00 5,6 2,3 0,0
14.01.2019 14:00:00 5,3 2,6 0,0
14.01.2019 13:00:00 4,9 3,6 0,0
14.01.2019 12:00:00 - - -
14.01.2019 11:00:00 - - -
14.01.2019 10:00:00 - - -
14.01.2019 09:00:00 - - -
14.01.2019 08:00:00 - - -
14.01.2019 07:00:00 - - -
14.01.2019 06:00:00 - - -
14.01.2019 05:00:00 - - -
14.01.2019 04:00:00 - - -
14.01.2019 03:00:00 - - -
14.01.2019 02:00:00 - - -
14.01.2019 01:00:00 - - -
14.01.2019 00:00:00 - - -
13.01.2019 23:00:00 - - -
13.01.2019 22:00:00 - - -
13.01.2019 21:00:00 - - -
13.01.2019 20:00:00 - - -
13.01.2019 19:00:00 - - -
13.01.2019 18:00:00 - - -
13.01.2019 17:00:00 - - -
13.01.2019 16:00:00 - - -
13.01.2019 15:00:00 - - -
13.01.2019 14:00:00 6,4 5,8 0,0
13.01.2019 13:00:00 6,4 5,9 0,0
13.01.2019 12:00:00 - - -
13.01.2019 11:00:00 - - -
13.01.2019 10:00:00 - - -
13.01.2019 09:00:00 - - -

tt = temperature
td = dewpoint
rr = precipitation

Next stations